TimeCST,TemperatureF,Dew PointF,Humidity,Sea Level PressureIn,VisibilityMPH,Wind Direction,Wind SpeedMPH,Gust SpeedMPH,PrecipitationIn,Events,Conditions,WindDirDegrees,DateUTC
12:53 AM,19.9,8.1,60,30.38,10.0,Calm,Calm,-,N/A,,Clear,0,2012-11-13 06:53:00
1:53 AM,19.0,8.1,62,30.37,10.0,Calm,Calm,-,N/A,,Clear,0,2012-11-13 07:53:00
2:53 AM,17.1,8.1,68,30.36,10.0,Calm,Calm,-,N/A,,Clear,0,2012-11-13 08:53:00
3:53 AM,18.0,9.0,68,30.34,10.0,Calm,Calm,-,N/A,,Clear,0,2012-11-13 09:53:00
4:53 AM,18.0,9.0,68,30.32,-9999.0,Calm,Calm,-,N/A,,Unknown,0,2012-11-13 10:53:00
5:53 AM,15.1,7.0,70,30.35,10.0,South,4.6,-,N/A,,Clear,180,2012-11-13 11:53:00
6:53 AM,17.1,9.0,71,30.33,10.0,Calm,Calm,-,N/A,,Clear,0,2012-11-13 12:53:00
7:53 AM,16.0,9.0,74,30.35,10.0,West,5.8,-,N/A,,Clear,280,2012-11-13 13:53:00
8:53 AM,19.0,10.9,71,30.37,9.0,Calm,Calm,-,N/A,,Clear,0,2012-11-13 14:53:00
9:53 AM,27.0,12.9,56,30.36,10.0,Calm,Calm,-,N/A,,Clear,0,2012-11-13 15:53:00
10:53 AM,34.0,12.0,40,30.35,10.0,South,4.6,-,N/A,,Clear,170,2012-11-13 16:53:00
11:53 AM,39.0,10.9,32,30.31,10.0,Calm,Calm,-,N/A,,Clear,0,2012-11-13 17:53:00
12:53 PM,42.1,10.0,27,30.28,10.0,ESE,6.9,-,N/A,,Clear,120,2012-11-13 18:53:00
1:53 PM,45.0,10.9,25,30.26,10.0,Calm,Calm,-,N/A,,Clear,0,2012-11-13 19:53:00
2:53 PM,48.9,9.0,20,30.25,10.0,North,5.8,-,N/A,,Clear,350,2012-11-13 20:53:00
3:53 PM,51.1,7.0,17,30.25,10.0,Calm,Calm,-,N/A,,Partly Cloudy,0,2012-11-13 21:53:00
4:53 PM,50.0,8.1,18,30.26,10.0,Calm,Calm,-,N/A,,Clear,0,2012-11-13 22:53:00
5:53 PM,48.0,7.0,19,30.26,10.0,SSE,5.8,-,N/A,,Clear,150,2012-11-13 23:53:00
6:53 PM,37.0,8.1,30,30.30,10.0,Calm,Calm,-,N/A,,Clear,0,2012-11-14 00:53:00
7:53 PM,34.0,9.0,35,30.33,10.0,Calm,Calm,-,N/A,,Clear,0,2012-11-14 01:53:00
8:53 PM,28.9,10.0,45,30.35,10.0,WSW,8.1,-,N/A,,Clear,250,2012-11-14 02:53:00
9:53 PM,24.1,10.0,55,30.36,10.0,WSW,4.6,-,N/A,,Clear,240,2012-11-14 03:53:00
10:53 PM,26.1,10.0,51,30.36,10.0,West,9.2,-,N/A,,Clear,260,2012-11-14 04:53:00
11:53 PM,24.1,12.0,60,30.34,10.0,West,6.9,-,N/A,,Clear,270,2012-11-14 05:53:00